Time;durP1;ratioP1;P1;durP2;ratioP2;P2;SDS_P1;SDS_P2;PMS_P1;PMS_P2;Temp;Humidity;BMP_temperature;BMP_pressure;BME280_temperature;BME280_humidity;BME280_pressure;Samples;Min_cycle;Max_cycle;Signal;HPM_P1;HPM_P2
2022/09/15 00:01:12;;;;;;;1.57;1.10;;;;;;;18.06;98.65;97728.13;4908225;29;20230;-58
2022/09/15 00:03:39;;;;;;;4.80;1.30;;;;;;;18.12;98.79;97734.38;4911339;29;20234;-59
2022/09/15 00:06:08;;;;;;;2.27;1.10;;;;;;;18.25;94.19;97731.59;4924661;29;20230;-58
2022/09/15 00:08:36;;;;;;;2.97;0.90;;;;;;;18.33;96.41;97727.03;4927301;29;20241;-58
2022/09/15 00:11:07;;;;;;;3.10;1.30;;;;;;;18.28;98.67;97719.75;4912017;29;20217;-59
2022/09/15 00:13:35;;;;;;;2.43;1.07;;;;;;;18.26;97.64;97717.34;4924609;29;20263;-57
2022/09/15 00:16:03;;;;;;;4.70;1.30;;;;;;;18.26;97.49;97732.38;4929058;29;20249;-59
2022/09/15 00:18:30;;;;;;;3.57;1.20;;;;;;;18.30;97.73;97736.19;4925187;29;20243;-59
2022/09/15 00:20:57;;;;;;;4.57;1.50;;;;;;;18.32;96.09;97735.97;4929181;29;20241;-58
2022/09/15 00:23:24;;;;;;;3.20;1.30;;;;;;;18.31;99.63;97737.00;4926085;29;20278;-58
2022/09/15 00:25:53;;;;;;;2.80;1.20;;;;;;;18.37;94.47;97738.75;4928283;28;20235;-59
2022/09/15 00:28:22;;;;;;;2.63;1.20;;;;;;;18.41;95.93;97732.00;4925933;29;20223;-58
2022/09/15 00:30:54;;;;;;;2.47;1.20;;;;;;;18.42;95.89;97734.41;4929063;29;20854;-58
2022/09/15 00:33:22;;;;;;;4.63;1.30;;;;;;;18.47;95.83;97730.28;4924705;29;20243;-58
2022/09/15 00:35:51;;;;;;;3.77;1.53;;;;;;;18.48;95.40;97739.81;4928499;29;20752;-58
2022/09/15 00:38:18;;;;;;;6.77;1.30;;;;;;;18.59;92.93;97731.13;4925724;29;20293;-58
2022/09/15 00:40:47;;;;;;;7.20;1.47;;;;;;;18.56;94.26;97735.00;4929137;29;20915;-58
2022/09/15 00:43:16;;;;;;;2.37;1.07;;;;;;;18.57;93.49;97735.84;4926206;29;20289;-58
2022/09/15 00:46:01;;;;;;;1.40;1.10;;;;;;;18.54;93.02;97741.56;4928893;28;20282;-58
2022/09/15 00:48:28;;;;;;;3.57;1.40;;;;;;;18.57;91.38;97743.75;4924230;29;20230;-58
2022/09/15 00:50:58;;;;;;;5.67;1.20;;;;;;;18.54;92.76;97738.94;4928185;29;20707;-58
2022/09/15 00:53:26;;;;;;;2.30;1.20;;;;;;;18.59;91.12;97726.63;4925860;28;20251;-58
2022/09/15 00:55:54;;;;;;;2.20;1.13;;;;;;;18.63;90.93;97723.53;4929215;29;20739;-58
2022/09/15 00:58:29;;;;;;;2.83;1.30;;;;;;;18.66;88.71;97729.22;4927350;29;20263;-57
2022/09/15 01:00:59;;;;;;;2.13;1.20;;;;;;;18.64;90.36;97723.34;4928835;29;20320;-58
2022/09/15 01:03:29;;;;;;;5.00;1.83;;;;;;;18.58;91.17;97722.38;4906217;29;20232;-58
2022/09/15 01:06:19;;;;;;;2.83;1.43;;;;;;;18.52;91.52;97720.66;4925370;29;20629;-58
2022/09/15 01:08:52;;;;;;;3.90;1.37;;;;;;;18.47;92.76;97714.44;4927531;29;20300;-58
2022/09/15 01:11:19;;;;;;;4.03;1.20;;;;;;;18.40;95.49;97727.75;4923721;29;20240;-58
2022/09/15 01:13:47;;;;;;;3.73;1.17;;;;;;;18.31;95.92;97740.44;4927328;29;20235;-58
2022/09/15 01:16:20;;;;;;;7.33;1.57;;;;;;;18.25;96.66;97734.22;4925267;29;20652;-58
2022/09/15 01:18:57;;;;;;;3.47;1.40;;;;;;;18.20;98.29;97738.53;4927482;29;20289;-58
2022/09/15 01:21:34;;;;;;;4.17;1.23;;;;;;;18.09;98.99;97729.53;4924889;29;20286;-59
2022/09/15 01:24:44;;;;;;;4.67;1.30;;;;;;;18.00;100.00;97721.91;4927633;29;20246;-58
2022/09/15 01:27:28;;;;;;;4.27;1.27;;;;;;;17.99;99.25;97714.22;4911871;28;20230;-58
2022/09/15 01:30:04;;;;;;;3.17;1.10;;;;;;;17.92;100.00;97709.00;4927136;29;20296;-58
2022/09/15 01:35:34;;;;;;;2.73;1.50;;;;;;;17.88;100.00;97707.81;4924939;28;20579;-57
2022/09/15 01:38:08;;;;;;;1.70;1.20;;;;;;;17.93;99.58;97715.09;4910774;29;20242;-58
2022/09/15 01:40:39;;;;;;;2.30;1.20;;;;;;;17.91;100.00;97717.13;4925256;29;20241;-58
2022/09/15 01:43:09;;;;;;;1.57;1.00;;;;;;;17.90;100.00;97710.25;4926547;28;20246;-58
2022/09/15 01:45:41;;;;;;;2.83;1.30;;;;;;;17.80;100.00;97711.56;4926847;28;20318;-57
2022/09/15 01:48:09;;;;;;;4.73;1.00;;;;;;;17.77;100.00;97700.63;4926978;28;20235;-58
2022/09/15 01:50:42;;;;;;;3.00;1.03;;;;;;;17.75;100.00;97700.88;4930085;29;20698;-58
2022/09/15 01:53:12;;;;;;;2.43;1.20;;;;;;;17.75;100.00;97702.69;4924050;29;20233;-58
2022/09/15 01:55:43;;;;;;;2.90;1.17;;;;;;;17.74;100.00;97690.50;4919628;29;20754;-57
2022/09/15 01:58:10;;;;;;;2.90;1.00;;;;;;;17.71;100.00;97695.19;4915781;29;20726;-58
2022/09/15 02:00:43;;;;;;;2.47;1.40;;;;;;;17.70;100.00;97703.34;4927007;29;20296;-59
2022/09/15 02:03:18;;;;;;;4.50;1.00;;;;;;;17.78;99.83;97707.53;4923166;29;20239;-57
2022/09/15 02:05:52;;;;;;;3.47;1.27;;;;;;;17.75;100.00;97703.50;4914754;29;20241;-58
2022/09/15 02:08:26;;;;;;;3.13;1.10;;;;;;;17.77;100.00;97698.81;4900140;29;20572;-58
2022/09/15 02:11:02;;;;;;;2.87;1.40;;;;;;;17.79;100.00;97709.97;4929820;29;20268;-58
2022/09/15 02:13:38;;;;;;;3.53;1.30;;;;;;;17.80;99.99;97701.00;4926115;29;20242;-58
2022/09/15 02:16:18;;;;;;;3.63;1.00;;;;;;;17.85;99.79;97709.06;4926560;29;20244;-58
2022/09/15 02:19:15;;;;;;;1.50;1.10;;;;;;;17.83;100.00;97711.13;4931003;29;20884;-58
2022/09/15 02:21:53;;;;;;;1.10;0.90;;;;;;;17.90;97.73;97705.75;4927855;29;20747;-58
2022/09/15 02:24:26;;;;;;;1.93;1.00;;;;;;;17.94;97.27;97706.94;4925924;29;20766;-58
2022/09/15 02:26:55;;;;;;;1.20;1.00;;;;;;;17.87;97.49;97693.00;4930576;29;20241;-58
2022/09/15 02:29:25;;;;;;;4.93;1.03;;;;;;;17.82;99.92;97709.50;4927844;29;20316;-57
2022/09/15 02:31:56;;;;;;;3.70;1.30;;;;;;;17.81;97.77;97699.16;4930448;29;20282;-58
2022/09/15 02:34:27;;;;;;;3.70;1.27;;;;;;;17.81;99.41;97697.34;4926123;29;20777;-58
2022/09/15 02:36:55;;;;;;;2.67;1.10;;;;;;;17.82;99.22;97709.50;4930582;29;20235;-58
2022/09/15 02:39:26;;;;;;;2.53;0.90;;;;;;;17.87;98.12;97693.00;4927696;29;20726;-58
2022/09/15 02:41:52;;;;;;;1.40;1.10;;;;;;;17.93;98.16;97704.53;4930295;29;20242;-58
2022/09/15 02:44:19;;;;;;;3.67;1.20;;;;;;;17.93;96.38;97700.03;4927224;29;20779;-58
2022/09/15 02:46:46;;;;;;;3.27;1.33;;;;;;;17.93;97.01;97691.31;4931063;29;20233;-58
2022/09/15 02:49:14;;;;;;;1.73;1.07;;;;;;;17.91;97.75;97696.81;4928071;29;20793;-58
2022/09/15 02:51:41;;;;;;;3.57;0.93;;;;;;;17.88;98.06;97699.91;4931016;29;20237;-57
2022/09/15 02:54:08;;;;;;;3.40;1.03;;;;;;;17.87;98.18;97706.19;4927810;28;20253;-58
2022/09/15 02:56:34;;;;;;;2.10;1.20;;;;;;;17.88;97.82;97699.09;4928932;29;20241;-58
2022/09/15 02:59:01;;;;;;;3.80;1.30;;;;;;;17.89;96.76;97703.34;4930401;29;20235;-58
2022/09/15 03:04:10;;;;;;;3.80;1.10;;;;;;;17.98;96.53;97708.09;5596371;23;20227;-54
2022/09/15 03:06:38;;;;;;;3.20;1.00;;;;;;;17.98;96.88;97709.94;4975119;28;20684;-52
2022/09/15 03:09:07;;;;;;;3.43;1.10;;;;;;;17.92;97.35;97701.06;4972392;28;20261;-53
2022/09/15 03:11:35;;;;;;;3.47;1.40;;;;;;;17.94;95.40;97692.94;4978307;28;20261;-54
2022/09/15 03:14:03;;;;;;;2.80;1.00;;;;;;;17.96;96.35;97686.41;4972862;28;20708;-53
2022/09/15 03:16:31;;;;;;;2.93;1.00;;;;;;;17.92;95.76;97687.06;4966382;28;20259;-54
2022/09/15 03:18:59;;;;;;;1.97;0.87;;;;;;;17.94;95.82;97685.03;4973541;28;20350;-52
2022/09/15 03:21:28;;;;;;;1.40;1.23;;;;;;;17.92;95.86;97692.34;4969989;28;20236;-51
2022/09/15 03:23:58;;;;;;;4.60;1.07;;;;;;;17.94;96.29;97704.28;4966708;28;20756;-52
2022/09/15 03:26:25;;;;;;;4.20;1.20;;;;;;;17.97;93.88;97703.06;4968945;28;20272;-53
2022/09/15 03:28:52;;;;;;;3.70;0.97;;;;;;;18.04;92.75;97690.59;4967594;28;20235;-53
2022/09/15 03:31:18;;;;;;;3.57;1.10;;;;;;;17.99;92.11;97685.16;4965114;28;20229;-51
2022/09/15 03:33:45;;;;;;;2.13;0.83;;;;;;;18.07;91.32;97692.00;4966602;28;20315;-51
2022/09/15 03:36:12;;;;;;;4.67;1.13;;;;;;;18.03;92.06;97696.91;4970113;28;20237;-51
2022/09/15 03:38:38;;;;;;;2.83;0.90;;;;;;;18.05;91.51;97686.13;4972630;28;20290;-54
2022/09/15 03:41:09;;;;;;;4.53;1.17;;;;;;;18.08;91.31;97698.88;4969663;28;20253;-54
2022/09/15 03:43:37;;;;;;;1.87;0.80;;;;;;;18.13;92.19;97694.53;4974348;28;20272;-51
2022/09/15 03:46:05;;;;;;;3.57;1.00;;;;;;;18.15;89.81;97702.25;4971669;28;20739;-53
2022/09/15 03:48:35;;;;;;;2.23;1.07;;;;;;;18.15;91.06;97696.97;4972869;28;20228;-52
2022/09/15 03:51:01;;;;;;;5.00;0.80;;;;;;;18.14;90.84;97690.06;4966363;28;20239;-53
2022/09/15 03:53:30;;;;;;;3.67;1.00;;;;;;;18.07;92.20;97698.06;4965238;28;20264;-53
2022/09/15 03:56:08;;;;;;;4.63;1.10;;;;;;;18.09;91.41;97705.78;4969832;28;20833;-52
2022/09/15 03:58:54;;;;;;;4.73;1.43;;;;;;;18.09;91.21;97705.78;4973670;28;20240;-52
2022/09/15 04:01:21;;;;;;;2.77;1.30;;;;;;;18.08;92.00;97699.69;4971075;28;21088;-53
2022/09/15 04:03:48;;;;;;;2.90;1.10;;;;;;;18.07;91.74;97699.91;4974684;28;20233;-54
2022/09/15 04:06:16;;;;;;;2.60;0.97;;;;;;;18.08;91.62;97701.53;4971571;28;20292;-51
2022/09/15 04:08:42;;;;;;;3.47;1.10;;;;;;;18.07;91.06;97700.69;4971141;28;20240;-53
2022/09/15 04:11:29;;;;;;;5.40;1.07;;;;;;;18.06;91.49;97699.09;4962502;28;20253;-52
2022/09/15 04:13:56;;;;;;;2.83;1.00;;;;;;;18.04;91.51;97693.22;4962892;28;20242;-51
2022/09/15 04:16:24;;;;;;;3.43;1.00;;;;;;;18.08;90.66;97706.81;4964295;28;20292;-51
2022/09/15 04:18:52;;;;;;;1.87;0.87;;;;;;;18.05;90.78;97700.13;4962139;28;20249;-52
2022/09/15 04:21:38;;;;;;;3.10;0.90;;;;;;;18.02;90.78;97692.63;4963309;28;20625;-52
2022/09/15 04:24:05;;;;;;;2.90;1.20;;;;;;;18.00;91.23;97687.59;4965222;28;20269;-53
2022/09/15 04:26:34;;;;;;;2.93;0.90;;;;;;;18.00;91.38;97700.00;4967448;28;21219;-54
2022/09/15 04:29:03;;;;;;;3.30;1.00;;;;;;;18.03;90.47;97688.97;4970684;28;20243;-53
2022/09/15 04:31:29;;;;;;;4.97;1.07;;;;;;;17.97;91.08;97692.50;4963887;28;20237;-54
2022/09/15 04:33:56;;;;;;;3.03;1.00;;;;;;;17.98;91.26;97692.25;4977409;28;20261;-51
2022/09/15 04:36:26;;;;;;;2.70;1.10;;;;;;;17.97;92.30;97684.56;4969980;28;20224;-50
2022/09/15 04:38:53;;;;;;;2.67;1.20;;;;;;;17.98;91.05;97688.84;4970548;28;20281;-50
2022/09/15 04:41:20;;;;;;;3.80;1.43;;;;;;;18.03;92.00;97694.25;4963764;28;20233;-53
2022/09/15 04:43:48;;;;;;;2.20;0.97;;;;;;;17.98;92.23;97697.53;4969639;28;20290;-51
2022/09/15 04:46:15;;;;;;;3.60;1.20;;;;;;;18.00;91.62;97689.44;4968786;28;20275;-51
2022/09/15 04:48:42;;;;;;;1.87;1.00;;;;;;;17.98;92.20;97686.97;4969128;28;20261;-53
2022/09/15 04:51:12;;;;;;;4.77;1.17;;;;;;;17.96;92.19;97685.59;4970953;28;20311;-52
2022/09/15 04:53:39;;;;;;;3.40;0.97;;;;;;;17.96;92.02;97688.25;4967845;28;20225;-52
2022/09/15 04:56:09;;;;;;;1.37;0.80;;;;;;;17.92;92.48;97693.16;4973547;28;20233;-53
2022/09/15 04:58:37;;;;;;;17.73;10.20;;;;;;;17.93;92.97;97686.84;4969695;28;20245;-54
2022/09/15 05:01:10;;;;;;;2.13;1.27;;;;;;;17.89;93.10;97683.03;4970150;28;20240;-52
2022/09/15 05:03:38;;;;;;;6.87;1.97;;;;;;;17.91;93.72;97690.75;4965551;28;20245;-51
2022/09/15 05:06:06;;;;;;;3.13;1.20;;;;;;;17.96;92.44;97688.25;4970213;28;20239;-54
2022/09/15 05:08:33;;;;;;;2.30;1.47;;;;;;;17.95;92.76;97684.78;4963032;28;20235;-52
2022/09/15 05:11:01;;;;;;;3.10;1.50;;;;;;;17.94;93.26;97692.94;4975028;28;21158;-53
2022/09/15 05:13:28;;;;;;;3.53;1.33;;;;;;;17.94;93.36;97691.09;4971032;28;21349;-51
2022/09/15 05:15:54;;;;;;;3.40;1.10;;;;;;;17.91;95.38;97686.25;4973885;28;20238;-51
2022/09/15 05:18:22;;;;;;;5.13;3.13;;;;;;;17.91;95.63;97690.75;4963323;28;20270;-54
2022/09/15 05:20:49;;;;;;;5.90;4.10;;;;;;;17.85;96.55;97689.78;4971516;28;20236;-54
2022/09/15 05:23:16;;;;;;;5.07;2.30;;;;;;;17.78;97.07;97686.41;4967207;28;20565;-52
2022/09/15 05:25:42;;;;;;;1.33;0.90;;;;;;;17.71;97.25;97695.19;4971557;28;20257;-51
2022/09/15 05:28:09;;;;;;;2.00;0.80;;;;;;;17.68;98.07;97711.47;4968109;28;20244;-51
2022/09/15 05:30:39;;;;;;;3.20;0.70;;;;;;;17.75;97.57;97697.41;4968489;28;20285;-51
2022/09/15 05:33:06;;;;;;;1.80;0.80;;;;;;;17.67;97.99;97709.88;4960697;28;20771;-51
2022/09/15 05:35:34;;;;;;;0.90;0.73;;;;;;;17.70;97.77;97706.00;4965436;28;20236;-54
2022/09/15 05:38:00;;;;;;;2.37;1.07;;;;;;;17.64;97.77;97706.88;4967242;28;20273;-51
2022/09/15 05:40:27;;;;;;;2.73;1.10;;;;;;;17.68;97.75;97708.84;4962779;28;20233;-51
2022/09/15 05:42:54;;;;;;;1.30;1.00;;;;;;;17.65;98.13;97724.31;4965799;28;20299;-52
2022/09/15 05:45:20;;;;;;;1.97;1.00;;;;;;;17.61;98.75;97716.00;4958649;28;20299;-53
2022/09/15 05:47:47;;;;;;;3.43;1.00;;;;;;;17.59;98.24;97718.06;4964261;28;20760;-51
2022/09/15 05:50:14;;;;;;;1.43;0.70;;;;;;;17.56;98.71;97706.13;4951815;28;20244;-53
2022/09/15 05:52:42;;;;;;;1.17;0.70;;;;;;;17.54;98.28;97726.66;4972244;28;20291;-54
2022/09/15 05:55:09;;;;;;;2.60;0.70;;;;;;;17.55;97.96;97738.00;4967010;28;20251;-52
2022/09/15 05:57:35;;;;;;;2.80;2.30;;;;;;;17.50;98.57;97740.47;4969977;28;20295;-51
2022/09/15 06:00:04;;;;;;;2.30;0.90;;;;;;;17.52;97.75;97741.06;4968499;28;20230;-53
2022/09/15 06:02:38;;;;;;;4.37;1.80;;;;;;;17.49;99.69;97733.63;4963779;28;20247;-51
2022/09/15 06:05:06;;;;;;;2.50;1.17;;;;;;;17.47;99.47;97728.53;4970027;28;20242;-51
2022/09/15 06:07:32;;;;;;;2.93;1.13;;;;;;;17.45;99.80;97727.94;4967530;28;20245;-51
2022/09/15 06:10:00;;;;;;;4.43;2.17;;;;;;;17.43;100.00;97729.22;4973637;28;20710;-51
2022/09/15 06:12:27;;;;;;;3.93;2.33;;;;;;;17.48;99.15;97727.53;4972650;28;20670;-53
2022/09/15 06:14:54;;;;;;;6.80;3.83;;;;;;;17.51;99.60;97740.28;4966757;28;20238;-51
2022/09/15 06:17:21;;;;;;;4.40;1.90;;;;;;;17.54;100.00;97745.13;4961335;28;20225;-51
2022/09/15 06:19:48;;;;;;;2.73;1.50;;;;;;;17.50;100.00;97733.38;4972048;28;20232;-51
2022/09/15 06:22:15;;;;;;;1.10;0.80;;;;;;;17.46;100.00;97741.97;4966908;28;20240;-56
2022/09/15 06:24:42;;;;;;;1.57;0.77;;;;;;;17.45;100.00;97756.19;4968495;28;20325;-53
2022/09/15 06:27:10;;;;;;;1.83;0.50;;;;;;;17.42;99.93;97741.56;4965800;28;20284;-55
2022/09/15 06:29:36;;;;;;;2.37;0.73;;;;;;;17.39;100.00;97747.28;4973047;28;20769;-51
2022/09/15 06:32:03;;;;;;;1.97;0.60;;;;;;;17.32;100.00;97760.53;4971713;28;20767;-50
2022/09/15 06:34:31;;;;;;;3.00;0.80;;;;;;;17.25;100.00;97757.94;4968072;28;20722;-51
2022/09/15 06:36:58;;;;;;;2.97;0.93;;;;;;;17.20;100.00;97759.63;4974919;28;20319;-50
2022/09/15 06:39:25;;;;;;;3.37;0.80;;;;;;;17.19;100.00;97772.00;4972526;28;20236;-52
2022/09/15 06:41:51;;;;;;;2.50;0.60;;;;;;;17.16;100.00;97777.69;4970577;28;20688;-51
2022/09/15 06:44:20;;;;;;;2.97;1.23;;;;;;;17.09;100.00;97790.13;4967617;28;20236;-50
2022/09/15 06:46:47;;;;;;;2.90;1.00;;;;;;;17.09;100.00;97785.66;4979014;28;20323;-53
2022/09/15 06:49:14;;;;;;;1.83;0.70;;;;;;;17.07;100.00;97792.16;4962034;28;20243;-53
2022/09/15 06:51:40;;;;;;;1.83;0.87;;;;;;;17.01;100.00;97788.56;4966945;28;20291;-53
2022/09/15 06:54:07;;;;;;;2.87;0.90;;;;;;;16.96;100.00;97797.09;4968459;28;20700;-52
2022/09/15 06:56:34;;;;;;;1.80;1.40;;;;;;;16.91;100.00;97789.00;4965091;28;20240;-51
2022/09/15 06:59:01;;;;;;;2.10;0.90;;;;;;;16.93;100.00;97794.88;4969255;28;20236;-53
2022/09/15 07:01:31;;;;;;;1.93;0.77;;;;;;;16.92;100.00;97780.06;4951244;28;20268;-54
2022/09/15 07:03:59;;;;;;;1.93;1.00;;;;;;;16.92;100.00;97787.16;4964507;28;20231;-51
2022/09/15 07:06:28;;;;;;;5.23;0.83;;;;;;;16.98;100.00;97783.72;4971354;28;20239;-50
2022/09/15 07:08:55;;;;;;;3.70;1.00;;;;;;;17.02;100.00;97784.91;4975056;28;20251;-51
2022/09/15 07:11:22;;;;;;;1.17;0.90;;;;;;;17.04;100.00;97792.56;4971839;28;20309;-53
2022/09/15 07:13:49;;;;;;;2.77;0.90;;;;;;;17.12;100.00;97789.69;4974897;28;20240;-50
2022/09/15 07:16:18;;;;;;;1.10;0.80;;;;;;;17.21;100.00;97798.16;4973260;28;20274;-51
2022/09/15 07:18:48;;;;;;;3.13;0.90;;;;;;;17.16;100.00;97801.41;4968097;28;20297;-50
2022/09/15 07:21:18;;;;;;;2.70;1.40;;;;;;;17.21;100.00;97801.59;4965563;28;20251;-51
2022/09/15 07:23:46;;;;;;;2.97;2.20;;;;;;;17.25;100.00;97794.88;4965497;28;20247;-51
2022/09/15 07:26:14;;;;;;;1.93;1.20;;;;;;;17.37;100.00;97796.81;4967075;28;20248;-50
2022/09/15 07:28:43;;;;;;;4.30;2.37;;;;;;;17.40;100.00;97799.03;4971144;28;20294;-51
2022/09/15 07:31:12;;;;;;;7.67;5.00;;;;;;;17.45;100.00;97799.19;4969070;28;20228;-54
2022/09/15 07:33:39;;;;;;;1.13;0.70;;;;;;;17.41;100.00;97803.28;4965015;28;20308;-54
2022/09/15 07:36:09;;;;;;;5.23;2.00;;;;;;;17.26;100.00;97795.69;4963060;28;20231;-52
2022/09/15 07:38:39;;;;;;;1.53;0.90;;;;;;;17.21;100.00;97808.72;4967652;28;20257;-50
2022/09/15 07:41:07;;;;;;;1.03;0.63;;;;;;;17.22;100.00;97805.84;4969170;28;20262;-53
2022/09/15 07:43:34;;;;;;;1.27;0.70;;;;;;;17.22;100.00;97802.41;4973967;28;20231;-54
2022/09/15 07:46:01;;;;;;;1.47;0.70;;;;;;;17.17;100.00;97800.41;4966904;28;20233;-50
2022/09/15 07:48:48;;;;;;;1.47;0.60;;;;;;;17.18;100.00;97803.84;4968176;28;20255;-53
2022/09/15 07:51:17;;;;;;;2.60;1.40;;;;;;;17.20;100.00;97797.34;4969672;28;20215;-51
2022/09/15 07:53:45;;;;;;;1.03;0.63;;;;;;;17.18;100.00;97804.66;4964820;28;20771;-50
2022/09/15 07:56:12;;;;;;;3.43;0.97;;;;;;;17.23;100.00;97804.81;4965002;28;20604;-51
2022/09/15 07:58:39;;;;;;;1.27;0.70;;;;;;;17.26;100.00;97800.97;4973576;28;20601;-50
2022/09/15 08:01:09;;;;;;;0.80;0.57;;;;;;;17.30;100.00;97804.78;4971118;28;20249;-52
2022/09/15 08:03:39;;;;;;;5.93;0.90;;;;;;;17.39;100.00;97811.41;4968359;28;20256;-50
2022/09/15 08:06:06;;;;;;;2.73;0.83;;;;;;;17.43;100.00;97811.78;4962978;28;20232;-53
2022/09/15 08:08:36;;;;;;;2.83;0.90;;;;;;;17.46;100.00;97808.72;4971186;28;20288;-50
2022/09/15 08:11:06;;;;;;;1.90;0.90;;;;;;;17.50;100.00;97812.53;4971864;28;20292;-51
2022/09/15 08:13:32;;;;;;;1.33;0.63;;;;;;;17.56;100.00;97810.84;4969166;28;20242;-50
2022/09/15 08:16:05;;;;;;;0.70;0.70;;;;;;;17.65;100.00;97814.84;4968860;28;20708;-50
2022/09/15 08:18:32;;;;;;;0.83;0.70;;;;;;;17.69;99.73;97816.00;4965540;28;20707;-53
2022/09/15 08:20:58;;;;;;;1.43;0.50;;;;;;;17.73;98.89;97826.97;4972429;28;20267;-50
2022/09/15 08:23:25;;;;;;;1.93;0.60;;;;;;;17.82;98.98;97825.66;4967913;28;20279;-50
2022/09/15 08:25:53;;;;;;;2.63;0.47;;;;;;;17.87;100.00;97826.84;4972750;28;20234;-51
2022/09/15 08:28:20;;;;;;;1.50;0.73;;;;;;;17.85;99.17;97830.50;4971039;28;20233;-52
2022/09/15 08:30:46;;;;;;;3.20;0.80;;;;;;;18.00;97.97;97832.81;4970274;28;20325;-51
2022/09/15 08:33:13;;;;;;;1.07;0.97;;;;;;;18.20;94.83;97829.16;4957344;28;20238;-50
2022/09/15 08:35:40;;;;;;;0.77;0.60;;;;;;;18.18;96.04;97818.00;4969043;28;20615;-51
2022/09/15 08:38:06;;;;;;;2.47;0.70;;;;;;;18.26;96.90;97830.09;4969852;28;20243;-52
2022/09/15 08:40:36;;;;;;;3.43;1.93;;;;;;;18.24;95.83;97824.25;4965718;28;20229;-53
2022/09/15 08:43:12;;;;;;;1.57;0.50;;;;;;;18.30;95.02;97820.72;4967608;28;20262;-53
2022/09/15 08:45:47;;;;;;;1.33;0.67;;;;;;;18.10;93.47;97826.22;4966058;28;20328;-50
2022/09/15 08:48:17;;;;;;;1.40;0.67;;;;;;;17.99;94.66;97839.13;4963522;28;20327;-53
2022/09/15 08:50:46;;;;;;;0.50;0.50;;;;;;;18.09;95.87;97843.88;4969482;28;20236;-50
2022/09/15 08:53:19;;;;;;;1.13;0.80;;;;;;;18.12;96.13;97842.66;4963604;28;20690;-50
2022/09/15 08:55:49;;;;;;;3.13;0.80;;;;;;;17.98;97.40;97840.13;4966141;28;20618;-50
2022/09/15 08:58:19;;;;;;;4.53;0.90;;;;;;;18.00;98.31;97843.38;4958950;28;20587;-50
2022/09/15 09:00:50;;;;;;;1.07;0.57;;;;;;;18.12;97.81;97846.09;4958705;28;20403;-51
2022/09/15 09:03:48;;;;;;;1.67;0.70;;;;;;;18.03;97.22;97836.06;4961783;28;20689;-50
2022/09/15 09:06:26;;;;;;;1.50;0.80;;;;;;;18.06;94.87;97841.69;4959291;28;20611;-50
2022/09/15 09:09:06;;;;;;;1.33;0.73;;;;;;;17.95;94.95;97839.75;4970214;28;20665;-51
2022/09/15 09:11:50;;;;;;;2.63;0.80;;;;;;;17.84;95.46;97838.63;4966783;28;20220;-53
2022/09/15 09:14:24;;;;;;;2.10;1.03;;;;;;;17.64;97.31;97850.16;4959566;28;20490;-51
2022/09/15 09:17:11;;;;;;;1.07;0.77;;;;;;;17.67;98.52;97854.22;4967268;28;20353;-53
2022/09/15 09:19:57;;;;;;;1.87;0.77;;;;;;;17.52;99.45;97850.06;4963679;28;20428;-51
2022/09/15 09:22:27;;;;;;;3.43;1.00;;;;;;;17.58;100.00;97847.59;4960762;28;20221;-52
2022/09/15 09:24:57;;;;;;;2.23;0.90;;;;;;;17.53;100.00;97848.22;4981546;28;20235;-50
2022/09/15 09:27:28;;;;;;;2.30;0.90;;;;;;;17.45;100.00;97846.66;4972854;28;20235;-50
2022/09/15 09:30:00;;;;;;;1.70;0.90;;;;;;;17.46;100.00;97844.84;4971697;28;20370;-53
2022/09/15 09:32:35;;;;;;;5.50;4.03;;;;;;;17.45;100.00;97837.97;4971832;28;20250;-50
2022/09/15 09:35:05;;;;;;;0.93;0.73;;;;;;;17.21;100.00;97841.16;4979561;28;20235;-50
2022/09/15 09:37:33;;;;;;;2.93;1.50;;;;;;;17.24;100.00;97830.19;4979148;28;20231;-53
2022/09/15 09:40:00;;;;;;;1.83;0.90;;;;;;;17.05;100.00;97839.84;4976117;28;20299;-51
2022/09/15 09:42:31;;;;;;;4.80;2.10;;;;;;;16.77;100.00;97840.97;4973961;28;20224;-50
2022/09/15 09:44:59;;;;;;;18.17;6.53;;;;;;;16.61;100.00;97833.53;4977835;28;20573;-52
2022/09/15 09:47:28;;;;;;;13.13;4.40;;;;;;;16.30;100.00;97838.50;4970285;28;23522;-50
2022/09/15 09:49:55;;;;;;;2.90;1.23;;;;;;;16.01;100.00;97845.06;4978157;28;20284;-50
2022/09/15 09:52:33;;;;;;;2.87;0.73;;;;;;;15.69;100.00;97848.31;4968332;28;20241;-50
2022/09/15 09:55:01;;;;;;;0.80;0.70;;;;;;;15.55;100.00;97844.88;4973726;28;20790;-52
2022/09/15 09:57:30;;;;;;;1.90;0.97;;;;;;;15.43;100.00;97846.47;4967360;28;20226;-52
2022/09/15 09:59:57;;;;;;;1.27;0.70;;;;;;;15.25;100.00;97829.50;4971529;28;20655;-50
2022/09/15 10:02:26;;;;;;;2.90;0.40;;;;;;;15.23;100.00;97825.44;4973043;28;20240;-52
2022/09/15 10:04:55;;;;;;;0.20;0.20;;;;;;;15.05;100.00;97843.41;4968012;28;20237;-51
2022/09/15 10:07:24;;;;;;;4.00;0.37;;;;;;;15.02;100.00;97858.75;4950845;28;20330;-50
2022/09/15 10:09:54;;;;;;;0.40;0.27;;;;;;;15.00;100.00;97874.72;4973306;28;20229;-50
2022/09/15 10:12:24;;;;;;;3.30;0.53;;;;;;;15.00;100.00;97866.84;4972786;28;20617;-52
2022/09/15 10:14:56;;;;;;;6.00;0.40;;;;;;;15.00;100.00;97855.50;4974511;28;20361;-51
2022/09/15 10:17:27;;;;;;;5.33;0.40;;;;;;;15.16;100.00;97860.41;4973596;28;20237;-51
2022/09/15 10:19:56;;;;;;;1.57;0.30;;;;;;;15.38;100.00;97854.16;4975472;28;20295;-51
2022/09/15 10:22:28;;;;;;;1.80;0.30;;;;;;;15.00;100.00;97856.34;4978737;28;20257;-52
2022/09/15 10:24:55;;;;;;;0.27;0.20;;;;;;;15.28;100.00;97870.34;4964874;28;20238;-51
2022/09/15 10:27:28;;;;;;;0.67;0.30;;;;;;;15.28;100.00;97871.16;4969125;28;20397;-50
2022/09/15 10:29:58;;;;;;;1.50;0.30;;;;;;;15.57;98.57;97881.50;4969413;28;20270;-50
2022/09/15 10:32:29;;;;;;;4.57;0.73;;;;;;;15.76;97.59;97893.84;4966301;28;20296;-51
2022/09/15 10:35:00;;;;;;;2.57;0.40;;;;;;;16.04;96.60;97897.31;4971635;28;20266;-52
2022/09/15 10:37:30;;;;;;;1.17;0.67;;;;;;;15.93;92.38;97899.53;4966681;28;20241;-51
2022/09/15 10:39:59;;;;;;;2.17;0.53;;;;;;;15.78;94.74;97910.25;4969627;28;20239;-51
2022/09/15 10:42:43;;;;;;;1.70;0.73;;;;;;;15.72;95.00;97916.31;4965469;28;20636;-51
2022/09/15 10:45:18;;;;;;;1.40;0.90;;;;;;;15.53;95.55;97915.28;4968244;28;20325;-51
2022/09/15 10:48:09;;;;;;;1.37;1.00;;;;;;;15.35;96.27;97929.84;4973296;28;20285;-53
2022/09/15 10:50:47;;;;;;;1.33;0.83;;;;;;;15.25;96.11;97931.19;4972753;28;20329;-52
2022/09/15 10:53:20;;;;;;;1.30;0.80;;;;;;;15.14;96.56;97927.34;4969190;28;20234;-52
2022/09/15 10:55:55;;;;;;;1.23;0.90;;;;;;;15.20;95.60;97924.72;4971567;28;20295;-51
2022/09/15 10:58:51;;;;;;;1.30;0.93;;;;;;;15.27;96.88;97923.94;4970451;28;20241;-51
2022/09/15 11:01:41;;;;;;;2.13;0.90;;;;;;;15.37;95.84;97928.81;4922825;28;20764;-51
2022/09/15 11:04:27;;;;;;;1.20;0.80;;;;;;;15.42;95.75;97929.84;4971105;28;20242;-52
2022/09/15 11:07:03;;;;;;;0.63;0.60;;;;;;;15.52;96.08;97933.91;4969820;28;20225;-51
2022/09/15 11:09:34;;;;;;;1.10;0.80;;;;;;;15.54;93.43;97932.66;4964088;28;20247;-53
2022/09/15 11:12:15;;;;;;;1.37;0.80;;;;;;;15.60;94.10;97933.72;4970417;28;20306;-51
2022/09/15 11:14:56;;;;;;;3.07;0.90;;;;;;;15.38;97.40;97933.88;4969273;28;20248;-50
2022/09/15 11:17:38;;;;;;;1.93;1.07;;;;;;;15.33;96.97;97949.44;4962690;28;20230;-52
2022/09/15 11:20:27;;;;;;;4.63;1.33;;;;;;;15.35;96.32;97952.66;4973141;28;20245;-51
2022/09/15 11:22:59;;;;;;;3.27;1.20;;;;;;;14.96;98.12;97957.59;4964066;28;20230;-52
2022/09/15 11:25:31;;;;;;;2.60;1.60;;;;;;;15.27;96.02;97966.00;4967123;28;20231;-53
2022/09/15 11:28:03;;;;;;;5.07;1.40;;;;;;;15.37;96.66;97974.31;4966706;28;20247;-51
2022/09/15 11:30:35;;;;;;;1.33;1.10;;;;;;;15.37;95.30;97978.78;4961117;28;20246;-52
2022/09/15 11:33:06;;;;;;;4.30;1.50;;;;;;;15.29;94.95;97982.38;4973510;28;20249;-50
2022/09/15 11:35:40;;;;;;;2.93;1.50;;;;;;;15.27;95.50;97985.22;4962198;28;20248;-53
2022/09/15 11:38:21;;;;;;;3.67;1.20;;;;;;;15.53;97.85;97988.13;4970654;28;20230;-54
2022/09/15 11:40:54;;;;;;;4.97;1.50;;;;;;;15.90;99.40;97993.91;4960060;28;20243;-53
2022/09/15 11:43:30;;;;;;;2.53;1.20;;;;;;;16.41;95.29;97999.56;4967459;28;20226;-50
2022/09/15 11:46:00;;;;;;;1.40;1.00;;;;;;;16.81;89.92;97995.03;4969882;28;20252;-53
2022/09/15 11:48:33;;;;;;;1.90;0.70;;;;;;;17.11;85.32;98002.47;4967962;28;20322;-53
2022/09/15 11:51:03;;;;;;;3.00;0.70;;;;;;;17.49;87.06;98000.09;4966455;28;20234;-53
2022/09/15 11:53:38;;;;;;;1.80;0.60;;;;;;;18.06;86.56;97996.69;4969160;28;20705;-51